ANS4582 SAZB-SAVE
Flight info
| Callsign | ANS4582 |
|---|---|
| Flight time | 1h 38m |
| Altitude | 36000 |
| Route | KIMID1G KIMID UT657 TOMIV DCT OPLAS DCT |
| Aircraft | B738/M-SDE2E3FGHIRWXY/LB1 |
Departure
| Time | 2026-05-04 15:49 |
|---|---|
| Airport | Comandante Espora Airport (SAZB) |
Arrival
| Time | 2026-05-04 17:27 |
|---|---|
| Airport | Esquel Brigadier Antonio Parodi International Airport (SAVE) |
| Time | Latitude | Longitude | Altitude | Speed | Heading |
|---|---|---|---|---|---|
| 2026-05-04 15:39 | -38.71643 | -62.16204 | 256 ft | 0 kts | 277° |
| 2026-05-04 15:39 | -38.71643 | -62.16205 | 256 ft | 0 kts | 277° |
| 2026-05-04 15:39 | -38.71622 | -62.16233 | 256 ft | 2 kts | 321° |
| 2026-05-04 15:40 | -38.71629 | -62.16240 | 256 ft | 1 kts | 198° |
| 2026-05-04 15:40 | -38.71635 | -62.16230 | 256 ft | 3 kts | 127° |
| 2026-05-04 15:40 | -38.71645 | -62.16176 | 256 ft | 8 kts | 96° |
| 2026-05-04 15:40 | -38.71655 | -62.16091 | 256 ft | 9 kts | 107° |
| 2026-05-04 15:41 | -38.71706 | -62.16042 | 256 ft | 10 kts | 162° |
| 2026-05-04 15:41 | -38.71779 | -62.16015 | 256 ft | 11 kts | 163° |
| 2026-05-04 15:41 | -38.71859 | -62.15986 | 256 ft | 14 kts | 163° |
| 2026-05-04 15:41 | -38.71968 | -62.15945 | 255 ft | 17 kts | 165° |
| 2026-05-04 15:42 | -38.72080 | -62.15903 | 255 ft | 17 kts | 161° |
| 2026-05-04 15:42 | -38.72189 | -62.15862 | 255 ft | 16 kts | 164° |
| 2026-05-04 15:42 | -38.72293 | -62.15824 | 255 ft | 15 kts | 163° |
| 2026-05-04 15:42 | -38.72394 | -62.15792 | 256 ft | 15 kts | 174° |
| 2026-05-04 15:43 | -38.72493 | -62.15799 | 256 ft | 14 kts | 185° |
| 2026-05-04 15:43 | -38.72588 | -62.15810 | 256 ft | 13 kts | 185° |
| 2026-05-04 15:43 | -38.72685 | -62.15821 | 256 ft | 14 kts | 185° |
| 2026-05-04 15:43 | -38.72782 | -62.15832 | 256 ft | 14 kts | 185° |
| 2026-05-04 15:44 | -38.72875 | -62.15843 | 256 ft | 13 kts | 185° |
| 2026-05-04 15:44 | -38.72959 | -62.15852 | 256 ft | 10 kts | 181° |
| 2026-05-04 15:44 | -38.72995 | -62.15787 | 256 ft | 10 kts | 92° |
| 2026-05-04 15:44 | -38.72993 | -62.15692 | 256 ft | 12 kts | 88° |
| 2026-05-04 15:45 | -38.72990 | -62.15574 | 256 ft | 14 kts | 88° |
| 2026-05-04 15:45 | -38.73027 | -62.15485 | 255 ft | 12 kts | 156° |
| 2026-05-04 15:45 | -38.73104 | -62.15453 | 255 ft | 12 kts | 164° |
| 2026-05-04 15:45 | -38.73181 | -62.15425 | 255 ft | 12 kts | 164° |
| 2026-05-04 15:46 | -38.73265 | -62.15394 | 256 ft | 14 kts | 165° |
| 2026-05-04 15:46 | -38.73364 | -62.15358 | 256 ft | 16 kts | 163° |
| 2026-05-04 15:46 | -38.73477 | -62.15317 | 256 ft | 17 kts | 164° |
| 2026-05-04 15:46 | -38.73588 | -62.15275 | 256 ft | 16 kts | 163° |
| 2026-05-04 15:47 | -38.73693 | -62.15238 | 256 ft | 15 kts | 165° |
| 2026-05-04 15:47 | -38.73754 | -62.15157 | 256 ft | 11 kts | 90° |
| 2026-05-04 15:47 | -38.73753 | -62.15089 | 257 ft | 6 kts | 89° |
| 2026-05-04 15:47 | -38.73752 | -62.15036 | 258 ft | 7 kts | 89° |
| 2026-05-04 15:48 | -38.73707 | -62.14979 | 257 ft | 10 kts | 355° |
| 2026-05-04 15:48 | -38.73691 | -62.14984 | 257 ft | 4 kts | 343° |
| 2026-05-04 15:48 | -38.72715 | -62.15350 | 254 ft | 135 kts | 344° |
| 2026-05-04 15:49 | -38.71727 | -62.15716 | 575 ft | 151 kts | 333° |
| 2026-05-04 15:49 | -38.70764 | -62.16279 | 1152 ft | 152 kts | 314° |
| 2026-05-04 15:49 | -38.70354 | -62.17453 | 1648 ft | 152 kts | 265° |
| 2026-05-04 15:49 | -38.70447 | -62.18791 | 2317 ft | 150 kts | 267° |
| 2026-05-04 15:50 | -38.70457 | -62.20277 | 2558 ft | 180 kts | 269° |
| 2026-05-04 15:50 | -38.70441 | -62.21970 | 2810 ft | 201 kts | 268° |
| 2026-05-04 15:50 | -38.70396 | -62.23827 | 3143 ft | 217 kts | 270° |
| 2026-05-04 15:50 | -38.70312 | -62.25856 | 3517 ft | 235 kts | 271° |
| 2026-05-04 15:51 | -38.70208 | -62.27938 | 4379 ft | 233 kts | 271° |
| 2026-05-04 15:51 | -38.70101 | -62.29986 | 5290 ft | 230 kts | 271° |
| 2026-05-04 15:51 | -38.70056 | -62.32051 | 5989 ft | 235 kts | 262° |
| 2026-05-04 15:51 | -38.70374 | -62.33379 | 6499 ft | 237 kts | 247° |
| 2026-05-04 15:52 | -38.71748 | -62.35614 | 7570 ft | 248 kts | 224° |
| 2026-05-04 15:52 | -38.73238 | -62.36806 | 8355 ft | 256 kts | 217° |
| 2026-05-04 15:52 | -38.74284 | -62.37525 | 8878 ft | 259 kts | 216° |
| 2026-05-04 15:52 | -38.75894 | -62.38601 | 9657 ft | 263 kts | 216° |
| 2026-05-04 15:53 | -38.77530 | -62.39697 | 10356 ft | 270 kts | 216° |
| 2026-05-04 15:53 | -38.79264 | -62.40879 | 10578 ft | 295 kts | 215° |
| 2026-05-04 15:53 | -38.81147 | -62.42169 | 10756 ft | 319 kts | 215° |
| 2026-05-04 15:53 | -38.83158 | -62.43550 | 11085 ft | 335 kts | 214° |
| 2026-05-04 15:54 | -38.85232 | -62.44976 | 11678 ft | 341 kts | 215° |
| 2026-05-04 15:54 | -38.87332 | -62.46425 | 12402 ft | 344 kts | 216° |
| 2026-05-04 15:54 | -38.89241 | -62.48208 | 13134 ft | 336 kts | 232° |
| 2026-05-04 15:54 | -38.90661 | -62.50563 | 13887 ft | 334 kts | 240° |
| 2026-05-04 15:55 | -38.91976 | -62.53037 | 14608 ft | 336 kts | 241° |
| 2026-05-04 15:55 | -38.93277 | -62.55540 | 15384 ft | 338 kts | 241° |
| 2026-05-04 15:55 | -38.94582 | -62.58055 | 16130 ft | 340 kts | 241° |
| 2026-05-04 15:55 | -38.95902 | -62.60589 | 16870 ft | 342 kts | 241° |
| 2026-05-04 15:56 | -38.97234 | -62.63134 | 17580 ft | 345 kts | 241° |
| 2026-05-04 15:56 | -38.98582 | -62.65702 | 18266 ft | 348 kts | 241° |
| 2026-05-04 15:56 | -38.99944 | -62.68291 | 18877 ft | 350 kts | 241° |
| 2026-05-04 15:56 | -39.01312 | -62.70887 | 19512 ft | 351 kts | 240° |
| 2026-05-04 15:57 | -39.02685 | -62.73491 | 20145 ft | 353 kts | 240° |
| 2026-05-04 15:57 | -39.04065 | -62.76108 | 20756 ft | 355 kts | 240° |
| 2026-05-04 15:57 | -39.05454 | -62.78745 | 21323 ft | 357 kts | 240° |
| 2026-05-04 15:57 | -39.06850 | -62.81398 | 21908 ft | 359 kts | 240° |
| 2026-05-04 15:58 | -39.08254 | -62.84068 | 22483 ft | 361 kts | 240° |
| 2026-05-04 15:58 | -39.09664 | -62.86751 | 23043 ft | 363 kts | 240° |
| 2026-05-04 15:58 | -39.11081 | -62.89450 | 23548 ft | 365 kts | 240° |
| 2026-05-04 15:58 | -39.12506 | -62.92164 | 24074 ft | 365 kts | 240° |
| 2026-05-04 15:59 | -39.13908 | -62.94838 | 24574 ft | 365 kts | 240° |
| 2026-05-04 15:59 | -39.15350 | -62.97591 | 25030 ft | 367 kts | 240° |
| 2026-05-04 15:59 | -39.16762 | -63.00290 | 25460 ft | 368 kts | 240° |
| 2026-05-04 15:59 | -39.18196 | -63.03032 | 25884 ft | 370 kts | 240° |
| 2026-05-04 16:00 | -39.19655 | -63.05825 | 26284 ft | 372 kts | 240° |
| 2026-05-04 16:00 | -39.21081 | -63.08557 | 26693 ft | 373 kts | 240° |
| 2026-05-04 16:00 | -39.22530 | -63.11336 | 27084 ft | 374 kts | 240° |
| 2026-05-04 16:00 | -39.23987 | -63.14132 | 27491 ft | 376 kts | 240° |
| 2026-05-04 16:01 | -39.25444 | -63.16931 | 27940 ft | 376 kts | 240° |
| 2026-05-04 16:01 | -39.26894 | -63.19717 | 28466 ft | 373 kts | 240° |
| 2026-05-04 16:01 | -39.28334 | -63.22486 | 29093 ft | 369 kts | 240° |
| 2026-05-04 16:01 | -39.29754 | -63.25219 | 29715 ft | 365 kts | 240° |
| 2026-05-04 16:02 | -39.31161 | -63.27931 | 30260 ft | 361 kts | 240° |
| 2026-05-04 16:02 | -39.32549 | -63.30610 | 30817 ft | 356 kts | 240° |
| 2026-05-04 16:02 | -39.35259 | -63.35843 | 32019 ft | 344 kts | 239° |
| 2026-05-04 16:03 | -39.36581 | -63.38400 | 32588 ft | 339 kts | 239° |
| 2026-05-04 16:03 | -39.37882 | -63.40922 | 33114 ft | 335 kts | 240° |
| 2026-05-04 16:03 | -39.39160 | -63.43421 | 33634 ft | 331 kts | 240° |
| 2026-05-04 16:03 | -39.40418 | -63.45890 | 34107 ft | 327 kts | 240° |
| 2026-05-04 16:04 | -39.41666 | -63.48343 | 34451 ft | 326 kts | 240° |
| 2026-05-04 16:04 | -39.44155 | -63.53244 | 35003 ft | 326 kts | 241° |
| 2026-05-04 16:04 | -39.45405 | -63.55707 | 35199 ft | 329 kts | 241° |
| 2026-05-04 16:05 | -39.46662 | -63.58187 | 35403 ft | 330 kts | 241° |
| 2026-05-04 16:05 | -39.47923 | -63.60673 | 35659 ft | 330 kts | 241° |
| 2026-05-04 16:05 | -39.50457 | -63.65677 | 35908 ft | 335 kts | 241° |
| 2026-05-04 16:06 | -39.51734 | -63.68200 | 35850 ft | 334 kts | 241° |
| 2026-05-04 16:07 | -39.56715 | -63.78054 | 35853 ft | 325 kts | 241° |
| 2026-05-04 16:08 | -39.61667 | -63.87893 | 35852 ft | 326 kts | 241° |
| 2026-05-04 16:09 | -39.67871 | -64.00257 | 35848 ft | 328 kts | 242° |
| 2026-05-04 16:10 | -39.72842 | -64.10198 | 35852 ft | 328 kts | 242° |
| 2026-05-04 16:11 | -39.77788 | -64.20120 | 35848 ft | 328 kts | 242° |
| 2026-05-04 16:12 | -39.85186 | -64.35022 | 35849 ft | 326 kts | 242° |
| 2026-05-04 16:13 | -39.90087 | -64.44934 | 35866 ft | 326 kts | 242° |
| 2026-05-04 16:14 | -39.94973 | -64.54844 | 35852 ft | 325 kts | 242° |
| 2026-05-04 16:16 | -40.01047 | -64.67210 | 35851 ft | 323 kts | 243° |
| 2026-05-04 16:17 | -40.07107 | -64.79555 | 35841 ft | 323 kts | 242° |
| 2026-05-04 16:18 | -40.11993 | -64.89403 | 35845 ft | 323 kts | 242° |
| 2026-05-04 16:19 | -40.18073 | -65.01715 | 35855 ft | 324 kts | 243° |
| 2026-05-04 16:20 | -40.24136 | -65.14041 | 35842 ft | 320 kts | 243° |
| 2026-05-04 16:22 | -40.30115 | -65.26251 | 35854 ft | 318 kts | 243° |
| 2026-05-04 16:23 | -40.37244 | -65.40873 | 35843 ft | 316 kts | 244° |
| 2026-05-04 16:25 | -40.44267 | -65.55341 | 35849 ft | 312 kts | 244° |
| 2026-05-04 16:26 | -40.52407 | -65.72200 | 35848 ft | 313 kts | 244° |
| 2026-05-04 16:28 | -40.58222 | -65.84298 | 35849 ft | 314 kts | 244° |
| 2026-05-04 16:29 | -40.66397 | -66.01384 | 35851 ft | 315 kts | 244° |
| 2026-05-04 16:31 | -40.72235 | -66.13646 | 35849 ft | 316 kts | 244° |
| 2026-05-04 16:32 | -40.79238 | -66.28414 | 35809 ft | 316 kts | 244° |
| 2026-05-04 16:33 | -40.83901 | -66.38295 | 35845 ft | 319 kts | 244° |
| 2026-05-04 16:34 | -40.87440 | -66.45808 | 35843 ft | 322 kts | 243° |
| 2026-05-04 16:35 | -40.94565 | -66.61000 | 35812 ft | 325 kts | 244° |
| 2026-05-04 16:36 | -40.98110 | -66.68587 | 35819 ft | 324 kts | 244° |
| 2026-05-04 16:37 | -41.01666 | -66.76215 | 35822 ft | 325 kts | 244° |
| 2026-05-04 16:38 | -41.06378 | -66.86430 | 35810 ft | 325 kts | 244° |
| 2026-05-04 16:39 | -41.11832 | -66.98368 | 35804 ft | 323 kts | 244° |
| 2026-05-04 16:40 | -41.16483 | -67.08573 | 35802 ft | 325 kts | 244° |
| 2026-05-04 16:41 | -41.22328 | -67.21463 | 35796 ft | 326 kts | 244° |
| 2026-05-04 16:43 | -41.28178 | -67.34411 | 35788 ft | 327 kts | 244° |
| 2026-05-04 16:43 | -41.31687 | -67.42204 | 35787 ft | 327 kts | 244° |
| 2026-05-04 16:45 | -41.38673 | -67.57777 | 35783 ft | 326 kts | 245° |
| 2026-05-04 16:46 | -41.44446 | -67.70710 | 35773 ft | 325 kts | 245° |
| 2026-05-04 16:47 | -41.49044 | -67.81050 | 35779 ft | 323 kts | 245° |
| 2026-05-04 16:48 | -41.53587 | -67.91379 | 35769 ft | 321 kts | 246° |
| 2026-05-04 16:49 | -41.57807 | -68.01877 | 35779 ft | 321 kts | 247° |
| 2026-05-04 16:50 | -41.62035 | -68.12418 | 35754 ft | 322 kts | 247° |
| 2026-05-04 16:51 | -41.65214 | -68.20346 | 35731 ft | 323 kts | 246° |
| 2026-05-04 16:52 | -41.69450 | -68.30933 | 35759 ft | 323 kts | 246° |
| 2026-05-04 16:53 | -41.72622 | -68.38888 | 35764 ft | 323 kts | 246° |
| 2026-05-04 16:54 | -41.76858 | -68.49538 | 35758 ft | 325 kts | 246° |
| 2026-05-04 16:55 | -41.83192 | -68.65540 | 35751 ft | 322 kts | 247° |
| 2026-05-04 16:56 | -41.88390 | -68.78739 | 35742 ft | 318 kts | 248° |
| 2026-05-04 16:57 | -41.91495 | -68.86656 | 35749 ft | 321 kts | 248° |
| 2026-05-04 16:58 | -41.95677 | -68.97352 | 35742 ft | 326 kts | 248° |
| 2026-05-04 16:59 | -41.97728 | -69.02589 | 35533 ft | 309 kts | 248° |
| 2026-05-04 17:00 | -42.01531 | -69.12350 | 34261 ft | 285 kts | 249° |
| 2026-05-04 17:00 | -42.04216 | -69.19280 | 33168 ft | 272 kts | 249° |
| 2026-05-04 17:01 | -42.05940 | -69.23731 | 32482 ft | 264 kts | 249° |
| 2026-05-04 17:01 | -42.07611 | -69.28057 | 31777 ft | 257 kts | 249° |
| 2026-05-04 17:02 | -42.09235 | -69.32265 | 31138 ft | 251 kts | 250° |
| 2026-05-04 17:02 | -42.10814 | -69.36365 | 30524 ft | 245 kts | 250° |
| 2026-05-04 17:03 | -42.11595 | -69.38400 | 30216 ft | 243 kts | 250° |
| 2026-05-04 17:03 | -42.12370 | -69.40418 | 29886 ft | 242 kts | 250° |
| 2026-05-04 17:03 | -42.13964 | -69.44578 | 29183 ft | 262 kts | 250° |
| 2026-05-04 17:04 | -42.15645 | -69.48963 | 28479 ft | 260 kts | 250° |
| 2026-05-04 17:04 | -42.17291 | -69.53245 | 27824 ft | 254 kts | 250° |
| 2026-05-04 17:05 | -42.18894 | -69.57428 | 27102 ft | 248 kts | 250° |
| 2026-05-04 17:05 | -42.20460 | -69.61521 | 26438 ft | 243 kts | 251° |
| 2026-05-04 17:06 | -42.21994 | -69.65543 | 25800 ft | 240 kts | 251° |
| 2026-05-04 17:06 | -42.22756 | -69.67544 | 25479 ft | 240 kts | 251° |
| 2026-05-04 17:07 | -42.24336 | -69.71723 | 24841 ft | 263 kts | 251° |
| 2026-05-04 17:07 | -42.24890 | -69.73188 | 24605 ft | 265 kts | 251° |
| 2026-05-04 17:07 | -42.26015 | -69.76144 | 24129 ft | 264 kts | 251° |
| 2026-05-04 17:07 | -42.26852 | -69.78339 | 23774 ft | 262 kts | 251° |
| 2026-05-04 17:08 | -42.27683 | -69.80524 | 23428 ft | 261 kts | 252° |
| 2026-05-04 17:08 | -42.29334 | -69.84871 | 22670 ft | 259 kts | 252° |
| 2026-05-04 17:08 | -42.30152 | -69.87027 | 22334 ft | 256 kts | 252° |
| 2026-05-04 17:09 | -42.30959 | -69.89157 | 21995 ft | 254 kts | 252° |
| 2026-05-04 17:09 | -42.31758 | -69.91270 | 21675 ft | 251 kts | 252° |
| 2026-05-04 17:09 | -42.32549 | -69.93361 | 21343 ft | 248 kts | 252° |
| 2026-05-04 17:10 | -42.34095 | -69.97455 | 20735 ft | 242 kts | 252° |
| 2026-05-04 17:10 | -42.36342 | -70.03430 | 19840 ft | 234 kts | 252° |
| 2026-05-04 17:11 | -42.37078 | -70.05387 | 19539 ft | 233 kts | 252° |
| 2026-05-04 17:11 | -42.37810 | -70.07328 | 19227 ft | 231 kts | 252° |
| 2026-05-04 17:11 | -42.39264 | -70.11245 | 18676 ft | 238 kts | 251° |
| 2026-05-04 17:12 | -42.40029 | -70.13288 | 18369 ft | 248 kts | 251° |
| 2026-05-04 17:12 | -42.41597 | -70.17454 | 17685 ft | 247 kts | 251° |
| 2026-05-04 17:13 | -42.43913 | -70.23631 | 16660 ft | 243 kts | 251° |
| 2026-05-04 17:14 | -42.46161 | -70.29648 | 15711 ft | 238 kts | 250° |
| 2026-05-04 17:14 | -42.46902 | -70.31637 | 15435 ft | 236 kts | 251° |
| 2026-05-04 17:14 | -42.48376 | -70.35601 | 14815 ft | 235 kts | 250° |
| 2026-05-04 17:15 | -42.49110 | -70.37574 | 14509 ft | 234 kts | 250° |
| 2026-05-04 17:15 | -42.50569 | -70.41503 | 13884 ft | 233 kts | 250° |
| 2026-05-04 17:16 | -42.52024 | -70.45426 | 13216 ft | 234 kts | 250° |
| 2026-05-04 17:16 | -42.54208 | -70.51316 | 12258 ft | 233 kts | 250° |
| 2026-05-04 17:17 | -42.54936 | -70.53275 | 11955 ft | 232 kts | 250° |
| 2026-05-04 17:17 | -42.57261 | -70.59073 | 10816 ft | 244 kts | 240° |
| 2026-05-04 17:18 | -42.58342 | -70.60851 | 10487 ft | 245 kts | 238° |
| 2026-05-04 17:18 | -42.60518 | -70.64328 | 10097 ft | 234 kts | 238° |
| 2026-05-04 17:19 | -42.62595 | -70.67711 | 9793 ft | 243 kts | 239° |
| 2026-05-04 17:19 | -42.64756 | -70.71269 | 9200 ft | 243 kts | 239° |
| 2026-05-04 17:20 | -42.66890 | -70.74796 | 8621 ft | 240 kts | 239° |
| 2026-05-04 17:20 | -42.68992 | -70.78251 | 8083 ft | 236 kts | 238° |
| 2026-05-04 17:20 | -42.70053 | -70.79954 | 7829 ft | 237 kts | 238° |
| 2026-05-04 17:21 | -42.72154 | -70.83343 | 7338 ft | 230 kts | 240° |
| 2026-05-04 17:21 | -42.74430 | -70.86404 | 6873 ft | 232 kts | 220° |
| 2026-05-04 17:22 | -42.75790 | -70.87485 | 6705 ft | 221 kts | 223° |
| 2026-05-04 17:22 | -42.77065 | -70.88603 | 6566 ft | 218 kts | 219° |
| 2026-05-04 17:23 | -42.80360 | -70.92401 | 5948 ft | 206 kts | 239° |
| 2026-05-04 17:23 | -42.81165 | -70.94043 | 5694 ft | 208 kts | 242° |
| 2026-05-04 17:23 | -42.82691 | -70.97304 | 5132 ft | 198 kts | 243° |
| 2026-05-04 17:24 | -42.83407 | -70.98824 | 4868 ft | 185 kts | 240° |
| 2026-05-04 17:24 | -42.85269 | -71.02762 | 4225 ft | 149 kts | 240° |
| 2026-05-04 17:25 | -42.85769 | -71.03943 | 4069 ft | 137 kts | 243° |
| 2026-05-04 17:25 | -42.86800 | -71.05994 | 3700 ft | 129 kts | 242° |
| 2026-05-04 17:26 | -42.87770 | -71.08075 | 3415 ft | 132 kts | 240° |
| 2026-05-04 17:26 | -42.89312 | -71.11299 | 2865 ft | 133 kts | 240° |
| 2026-05-04 17:27 | -42.90112 | -71.12989 | 2636 ft | 115 kts | 239° |
| 2026-05-04 17:27 | -42.90596 | -71.14013 | 2635 ft | 29 kts | 237° |
| 2026-05-04 17:28 | -42.90732 | -71.14379 | 2635 ft | 17 kts | 258° |
| 2026-05-04 17:29 | -42.90684 | -71.14652 | 2635 ft | 4 kts | 282° |
| 2026-05-04 17:29 | -42.90667 | -71.14678 | 2635 ft | 0 kts | 324° |